Time;durP1;ratioP1;P1;durP2;ratioP2;P2;SDS_P1;SDS_P2;PMS_P1;PMS_P2;Temp;Humidity;BMP_temperature;BMP_pressure;BME280_temperature;BME280_humidity;BME280_pressure;Samples;Min_cycle;Max_cycle;Signal;HPM_P1;HPM_P2
2023/02/26 00:01:30;;;;;;;3.73;1.53;;;1.60;99.90;;;;;;4955178;28;20746;-49
2023/02/26 00:03:59;;;;;;;1.90;1.50;;;1.60;99.90;;;;;;4974581;28;20265;-49
2023/02/26 00:06:27;;;;;;;2.77;2.23;;;1.60;99.90;;;;;;4974701;28;20287;-48
2023/02/26 00:08:55;;;;;;;3.57;1.70;;;1.50;99.90;;;;;;4974669;28;20683;-47
2023/02/26 00:11:22;;;;;;;1.90;1.80;;;1.30;99.90;;;;;;4972859;28;20215;-48
2023/02/26 00:13:49;;;;;;;2.10;1.83;;;1.30;99.90;;;;;;4974376;28;20282;-48
2023/02/26 00:16:26;;;;;;;4.03;2.10;;;1.30;99.90;;;;;;4973147;28;20664;-48
2023/02/26 00:18:56;;;;;;;2.17;1.97;;;1.20;99.90;;;;;;4974586;28;20202;-48
2023/02/26 00:21:25;;;;;;;3.37;2.23;;;1.00;99.90;;;;;;4974185;28;20256;-48
2023/02/26 00:23:52;;;;;;;2.67;1.90;;;1.00;99.90;;;;;;4965658;28;20226;-48
2023/02/26 00:26:20;;;;;;;2.73;2.53;;;0.90;99.90;;;;;;4973463;28;20669;-48
2023/02/26 00:28:48;;;;;;;1.27;1.17;;;0.90;99.90;;;;;;4965607;28;20260;-48
2023/02/26 00:31:17;;;;;;;2.80;1.20;;;0.90;99.90;;;;;;4964885;28;20279;-48
2023/02/26 00:33:44;;;;;;;1.27;1.20;;;0.90;99.90;;;;;;4973868;28;20221;-48
2023/02/26 00:36:21;;;;;;;1.30;1.20;;;0.80;99.90;;;;;;4972556;28;20205;-50
2023/02/26 00:39:01;;;;;;;1.20;1.10;;;0.80;99.90;;;;;;4972959;28;20201;-48
2023/02/26 00:41:29;;;;;;;3.10;1.00;;;0.70;99.90;;;;;;4974175;28;20210;-49
2023/02/26 00:43:57;;;;;;;1.97;0.70;;;0.70;99.90;;;;;;4969884;28;20252;-49
2023/02/26 00:46:35;;;;;;;3.00;2.80;;;0.70;99.90;;;;;;4967792;28;20256;-48
2023/02/26 00:49:09;;;;;;;4.43;0.90;;;0.80;99.90;;;;;;4965739;28;20206;-49
2023/02/26 00:51:44;;;;;;;1.17;0.80;;;0.90;99.90;;;;;;4973586;28;20197;-48
2023/02/26 00:54:17;;;;;;;1.80;1.00;;;0.90;99.90;;;;;;4965069;28;20701;-48
2023/02/26 00:56:44;;;;;;;2.97;0.83;;;0.90;99.90;;;;;;4971181;28;20205;-49
2023/02/26 00:59:11;;;;;;;1.60;1.27;;;1.00;99.90;;;;;;4965810;28;20207;-48
2023/02/26 01:01:38;;;;;;;1.17;0.80;;;0.90;99.90;;;;;;4969768;28;20625;-49
2023/02/26 01:04:06;;;;;;;4.70;3.07;;;1.00;99.90;;;;;;4973325;28;20774;-49
2023/02/26 01:06:35;;;;;;;1.37;1.23;;;1.00;99.90;;;;;;4973525;28;20733;-49
2023/02/26 01:09:11;;;;;;;1.90;0.97;;;1.00;99.90;;;;;;4973638;28;20673;-48
2023/02/26 01:11:38;;;;;;;1.37;1.37;;;1.00;99.90;;;;;;4973397;28;20205;-48
2023/02/26 01:14:06;;;;;;;2.73;1.30;;;1.00;99.90;;;;;;4972618;28;20297;-49
2023/02/26 01:16:40;;;;;;;1.90;1.23;;;1.10;99.90;;;;;;4970401;28;20211;-49
2023/02/26 01:19:16;;;;;;;1.90;1.23;;;1.10;99.90;;;;;;4973330;28;20198;-48
2023/02/26 01:21:49;;;;;;;0.87;0.87;;;1.00;99.90;;;;;;4972295;28;20202;-49
2023/02/26 01:24:21;;;;;;;2.10;1.30;;;1.00;99.90;;;;;;4973356;28;20710;-48
2023/02/26 01:26:49;;;;;;;1.30;1.20;;;1.00;99.90;;;;;;4971295;28;20643;-49
2023/02/26 01:29:16;;;;;;;1.00;1.00;;;1.00;99.90;;;;;;4973191;28;20215;-48
2023/02/26 01:31:50;;;;;;;1.33;1.20;;;1.00;99.90;;;;;;4964082;28;20210;-48
2023/02/26 01:34:21;;;;;;;0.90;0.90;;;1.00;99.90;;;;;;4966229;28;20257;-49
2023/02/26 01:36:56;;;;;;;1.40;1.10;;;1.10;99.90;;;;;;4971883;28;20197;-49
2023/02/26 01:39:30;;;;;;;2.20;1.20;;;1.10;99.90;;;;;;4971612;28;20214;-49
2023/02/26 01:42:06;;;;;;;4.07;1.70;;;1.10;99.90;;;;;;4972897;28;20203;-49
2023/02/26 01:44:39;;;;;;;1.17;1.17;;;1.00;99.90;;;;;;4972921;28;20303;-49
2023/02/26 01:47:20;;;;;;;1.67;1.03;;;1.00;99.90;;;;;;4972452;28;20275;-49
2023/02/26 01:49:48;;;;;;;1.87;1.60;;;0.90;99.90;;;;;;4970371;28;20248;-49
2023/02/26 01:53:03;;;;;;;1.87;1.23;;;1.00;99.90;;;;;;4966376;28;20631;-49
2023/02/26 01:55:31;;;;;;;3.37;3.07;;;1.00;99.90;;;;;;4920848;29;20678;-49
2023/02/26 01:58:00;;;;;;;1.37;1.37;;;1.10;99.90;;;;;;4913299;29;20259;-49
2023/02/26 02:00:27;;;;;;;3.33;2.00;;;1.10;99.90;;;;;;4944852;28;20201;-49
2023/02/26 02:02:55;;;;;;;1.70;1.60;;;1.00;99.90;;;;;;4972759;28;20272;-48
2023/02/26 02:05:26;;;;;;;4.17;1.80;;;1.00;99.90;;;;;;4972184;28;20205;-49
2023/02/26 02:07:54;;;;;;;3.60;1.67;;;1.00;99.90;;;;;;4970987;28;20216;-50
2023/02/26 02:10:21;;;;;;;2.00;1.50;;;1.10;99.90;;;;;;4972498;28;20199;-48
2023/02/26 02:12:56;;;;;;;1.70;1.60;;;0.90;99.90;;;;;;4976716;28;20300;-49
2023/02/26 02:15:28;;;;;;;2.77;1.47;;;0.90;99.90;;;;;;4975534;28;20201;-48
2023/02/26 02:18:02;;;;;;;2.50;2.07;;;1.00;99.90;;;;;;4967965;28;20201;-50
2023/02/26 02:20:49;;;;;;;1.70;1.60;;;0.90;99.90;;;;;;4976514;28;20211;-48
2023/02/26 02:23:20;;;;;;;3.30;1.53;;;0.90;99.90;;;;;;4967703;28;20221;-49
2023/02/26 02:26:27;;;;;;;1.57;1.57;;;0.90;99.90;;;;;;4974960;28;20232;-49
2023/02/26 02:29:30;;;;;;;3.80;2.30;;;0.90;99.90;;;;;;4975842;28;20642;-49
2023/02/26 02:32:00;;;;;;;3.30;3.10;;;1.00;99.90;;;;;;4975164;28;20251;-48
2023/02/26 02:34:34;;;;;;;6.97;5.97;;;1.00;99.90;;;;;;4975240;28;20724;-48
2023/02/26 02:37:05;;;;;;;4.03;3.27;;;1.00;99.90;;;;;;4972338;28;20196;-48
2023/02/26 02:39:36;;;;;;;6.60;3.00;;;1.10;99.90;;;;;;4975734;28;20204;-49
2023/02/26 02:42:07;;;;;;;5.37;3.43;;;1.10;99.90;;;;;;4974958;28;20274;-48
2023/02/26 02:44:39;;;;;;;4.93;2.97;;;1.10;99.90;;;;;;5012081;23;20237;-50
2023/02/26 02:47:11;;;;;;;1.80;1.73;;;1.10;99.90;;;;;;4989078;28;20282;-49
2023/02/26 02:49:43;;;;;;;1.33;1.33;;;1.00;99.90;;;;;;4992364;28;20196;-48
2023/02/26 02:52:16;;;;;;;3.00;2.50;;;0.90;99.90;;;;;;4994453;28;20212;-50
2023/02/26 02:54:47;;;;;;;2.20;2.10;;;0.90;99.90;;;;;;4983496;28;20224;-51
2023/02/26 02:57:19;;;;;;;1.67;1.60;;;0.90;99.90;;;;;;4993840;28;20714;-51
2023/02/26 02:59:49;;;;;;;3.87;2.83;;;0.90;99.90;;;;;;4993867;28;20599;-50
2023/02/26 03:02:21;;;;;;;3.70;3.50;;;0.90;99.90;;;;;;4994179;28;20210;-50
2023/02/26 03:04:49;;;;;;;2.60;2.40;;;0.90;99.90;;;;;;4994449;28;20309;-50
2023/02/26 03:07:16;;;;;;;6.70;4.20;;;0.90;99.90;;;;;;4992159;28;20228;-51
2023/02/26 03:09:44;;;;;;;3.23;3.00;;;0.90;99.90;;;;;;4993160;28;20248;-49
2023/02/26 03:12:11;;;;;;;2.00;1.80;;;1.00;99.90;;;;;;4994129;28;20256;-50
2023/02/26 03:14:39;;;;;;;2.20;1.97;;;1.00;99.90;;;;;;4994504;28;20294;-50
2023/02/26 03:17:16;;;;;;;3.10;1.83;;;0.90;99.90;;;;;;4992983;28;20584;-50
2023/02/26 03:20:04;;;;;;;1.93;1.73;;;0.90;99.90;;;;;;4993907;28;20201;-50
2023/02/26 03:22:43;;;;;;;1.60;1.50;;;0.90;99.90;;;;;;4992381;28;20721;-49
2023/02/26 03:25:14;;;;;;;1.87;1.77;;;0.90;99.90;;;;;;4994025;28;20763;-50
2023/02/26 03:27:47;;;;;;;1.40;1.30;;;0.90;99.90;;;;;;4993966;28;20216;-50
2023/02/26 03:30:19;;;;;;;1.40;1.30;;;1.00;99.90;;;;;;4992168;28;20205;-50
2023/02/26 03:32:52;;;;;;;3.63;1.50;;;0.90;99.90;;;;;;4993875;28;20206;-49
2023/02/26 03:35:27;;;;;;;2.30;1.70;;;0.90;99.90;;;;;;4994327;28;20209;-49
2023/02/26 03:37:58;;;;;;;1.73;1.63;;;0.90;99.90;;;;;;4993398;28;20275;-49
2023/02/26 03:40:30;;;;;;;1.27;1.17;;;1.10;99.90;;;;;;4993585;28;20209;-51
2023/02/26 03:43:01;;;;;;;2.87;1.60;;;0.90;99.90;;;;;;4992646;28;20287;-49
2023/02/26 03:45:31;;;;;;;1.73;1.17;;;0.80;99.90;;;;;;4992929;28;20204;-49
2023/02/26 03:48:00;;;;;;;1.20;1.10;;;0.90;99.90;;;;;;4980500;28;20291;-48
2023/02/26 03:50:35;;;;;;;1.03;0.93;;;0.70;99.90;;;;;;4993708;28;20195;-49
2023/02/26 03:53:06;;;;;;;1.73;1.63;;;0.80;99.90;;;;;;4992524;28;20298;-50
2023/02/26 03:55:38;;;;;;;1.03;1.03;;;0.80;99.90;;;;;;4991959;28;20201;-48
2023/02/26 03:58:05;;;;;;;1.77;1.00;;;0.70;99.90;;;;;;4993125;28;20198;-51
2023/02/26 04:00:35;;;;;;;0.80;0.70;;;0.60;99.90;;;;;;4993251;28;20275;-50
2023/02/26 04:03:07;;;;;;;1.43;1.20;;;0.70;99.90;;;;;;4993848;28;20200;-51
2023/02/26 04:05:41;;;;;;;2.03;1.43;;;0.60;99.90;;;;;;4992725;28;20266;-50
2023/02/26 04:08:08;;;;;;;2.00;1.10;;;0.60;99.90;;;;;;4991522;28;20216;-50
2023/02/26 04:10:41;;;;;;;2.30;0.90;;;0.60;99.90;;;;;;4993350;28;20280;-48
2023/02/26 04:13:08;;;;;;;3.70;1.10;;;0.50;99.90;;;;;;4999664;28;20224;-50
2023/02/26 04:15:35;;;;;;;4.90;4.47;;;0.50;99.90;;;;;;5004224;28;20204;-49
2023/02/26 04:18:02;;;;;;;2.00;1.20;;;0.50;99.90;;;;;;5005952;28;20200;-49
2023/02/26 04:20:29;;;;;;;2.20;1.60;;;0.60;99.90;;;;;;5001634;28;20199;-49
2023/02/26 04:22:57;;;;;;;1.00;1.00;;;0.50;99.90;;;;;;5003968;28;20266;-51
2023/02/26 04:25:24;;;;;;;1.40;1.30;;;0.50;99.90;;;;;;5004779;28;20202;-50
2023/02/26 04:27:51;;;;;;;1.80;1.40;;;0.60;99.90;;;;;;5003447;28;20220;-48
2023/02/26 04:30:18;;;;;;;0.87;0.77;;;0.60;99.90;;;;;;5006929;28;20221;-49
2023/02/26 04:32:45;;;;;;;1.63;1.10;;;0.50;99.90;;;;;;5001508;28;20204;-49
2023/02/26 04:35:12;;;;;;;1.50;1.40;;;0.50;99.90;;;;;;5004247;28;20253;-49
2023/02/26 04:37:43;;;;;;;1.00;1.00;;;0.40;99.90;;;;;;4999677;28;20247;-49
2023/02/26 04:40:12;;;;;;;1.43;1.33;;;0.40;99.90;;;;;;4992909;28;20554;-49
2023/02/26 04:42:41;;;;;;;1.27;1.17;;;0.40;99.90;;;;;;4992163;28;20235;-49
2023/02/26 04:45:08;;;;;;;1.40;1.17;;;0.30;99.90;;;;;;4990442;28;20314;-49
2023/02/26 04:47:36;;;;;;;1.27;0.90;;;0.30;99.90;;;;;;4990036;28;20205;-49
2023/02/26 04:50:03;;;;;;;1.17;1.10;;;0.30;99.90;;;;;;4992054;28;20196;-50
2023/02/26 04:52:30;;;;;;;1.97;1.20;;;0.30;99.90;;;;;;4990701;28;20675;-49
2023/02/26 04:54:57;;;;;;;1.30;1.07;;;0.40;99.90;;;;;;4990095;28;20272;-48
2023/02/26 04:57:25;;;;;;;1.40;1.30;;;0.40;99.90;;;;;;4992059;28;20198;-49
2023/02/26 04:59:52;;;;;;;1.20;1.17;;;0.40;99.90;;;;;;4991913;28;20287;-48
2023/02/26 05:02:19;;;;;;;1.00;1.00;;;0.40;99.90;;;;;;4990132;28;20202;-48
2023/02/26 05:05:06;;;;;;;1.40;1.30;;;0.40;99.90;;;;;;4983506;28;20725;-51
2023/02/26 05:07:33;;;;;;;1.17;1.10;;;0.30;99.90;;;;;;4991734;28;20221;-48
2023/02/26 05:10:00;;;;;;;1.47;1.37;;;0.30;99.90;;;;;;4991758;28;20251;-48
2023/02/26 05:12:28;;;;;;;1.27;0.90;;;0.20;99.90;;;;;;4990327;28;20283;-49
2023/02/26 05:14:55;;;;;;;1.80;1.40;;;0.20;99.90;;;;;;4991318;28;20222;-49
2023/02/26 05:17:22;;;;;;;1.50;0.97;;;0.10;99.90;;;;;;4990802;28;20208;-50
2023/02/26 05:19:49;;;;;;;1.70;0.90;;;0.10;99.90;;;;;;4991856;28;20196;-50
2023/02/26 05:22:16;;;;;;;1.13;1.07;;;0.10;99.90;;;;;;4991367;28;20263;-49
2023/02/26 05:24:43;;;;;;;1.27;1.13;;;0.10;99.90;;;;;;4990331;28;20226;-49
2023/02/26 05:27:10;;;;;;;1.40;1.30;;;0.10;99.90;;;;;;4991083;28;20209;-50
2023/02/26 05:29:40;;;;;;;1.47;0.70;;;0.10;99.90;;;;;;4991391;28;20578;-51
2023/02/26 05:32:08;;;;;;;1.37;1.17;;;0.20;99.90;;;;;;4991534;28;20306;-50
2023/02/26 05:34:35;;;;;;;4.10;1.63;;;0.20;99.90;;;;;;4991369;28;20236;-49
2023/02/26 05:37:02;;;;;;;2.03;1.70;;;0.10;99.90;;;;;;4991385;28;20780;-50
2023/02/26 05:39:29;;;;;;;1.70;1.37;;;0.00;99.90;;;;;;4992154;28;20215;-49
2023/02/26 05:41:56;;;;;;;2.03;1.90;;;0.10;99.90;;;;;;4990775;28;20200;-49
2023/02/26 05:44:23;;;;;;;1.60;1.50;;;0.00;99.90;;;;;;4990639;28;20231;-49
2023/02/26 05:46:51;;;;;;;2.77;1.20;;;0.00;99.90;;;;;;4991298;28;20201;-48
2023/02/26 05:49:18;;;;;;;3.90;1.13;;;0.10;99.90;;;;;;4991271;28;20284;-49
2023/02/26 05:51:45;;;;;;;1.90;1.80;;;0.20;99.90;;;;;;4989367;28;20257;-49
2023/02/26 05:54:12;;;;;;;2.67;1.13;;;0.10;99.90;;;;;;4990937;28;20223;-49
2023/02/26 05:56:39;;;;;;;2.90;0.90;;;0.10;99.90;;;;;;4989763;28;20202;-49
2023/02/26 05:59:07;;;;;;;3.50;1.20;;;0.10;99.90;;;;;;4990561;28;20194;-50
2023/02/26 06:01:35;;;;;;;1.80;1.30;;;0.20;99.90;;;;;;4991063;28;20785;-49
2023/02/26 06:04:04;;;;;;;5.60;3.17;;;0.20;99.90;;;;;;4989919;28;20253;-49
2023/02/26 06:06:31;;;;;;;3.60;2.20;;;0.30;99.90;;;;;;4990155;28;20200;-50
2023/02/26 06:09:00;;;;;;;4.43;1.73;;;0.20;99.90;;;;;;4990958;28;20257;-50
2023/02/26 06:11:27;;;;;;;4.70;1.43;;;0.30;99.90;;;;;;4989412;28;20208;-50
2023/02/26 06:13:54;;;;;;;2.40;1.23;;;0.30;99.90;;;;;;4990214;28;20234;-49
2023/02/26 06:16:21;;;;;;;4.20;1.50;;;0.20;99.90;;;;;;4988919;28;20719;-48
2023/02/26 06:18:48;;;;;;;0.80;0.70;;;0.20;99.90;;;;;;4982694;28;20206;-49
2023/02/26 06:21:18;;;;;;;1.23;1.00;;;0.20;99.90;;;;;;4990938;28;20243;-48
2023/02/26 06:23:45;;;;;;;1.60;0.93;;;0.10;99.90;;;;;;4990760;28;20272;-50
2023/02/26 06:26:12;;;;;;;1.20;1.20;;;0.00;99.90;;;;;;4989306;28;20214;-49
2023/02/26 06:28:39;;;;;;;1.27;1.17;;;0.10;99.90;;;;;;4990479;28;20275;-49
2023/02/26 06:31:06;;;;;;;2.40;1.23;;;0.00;99.90;;;;;;4990430;28;20218;-49
2023/02/26 06:33:33;;;;;;;3.67;1.00;;;-0.10;99.90;;;;;;4987884;28;20653;-50
2023/02/26 06:36:01;;;;;;;3.20;0.63;;;-0.10;99.90;;;;;;4988782;28;20585;-49
2023/02/26 06:38:29;;;;;;;1.33;1.23;;;-0.10;99.90;;;;;;4987876;28;20205;-49
2023/02/26 06:40:57;;;;;;;5.80;1.13;;;-0.10;99.90;;;;;;4989474;28;20197;-48
2023/02/26 06:43:23;;;;;;;1.13;1.07;;;-0.30;99.90;;;;;;4990302;28;20223;-49
2023/02/26 06:45:51;;;;;;;1.00;0.90;;;-0.20;99.90;;;;;;4990905;28;20267;-47
2023/02/26 06:48:18;;;;;;;2.93;1.07;;;-0.30;99.90;;;;;;4991475;28;20210;-49
2023/02/26 06:50:45;;;;;;;3.27;1.33;;;-0.30;99.90;;;;;;4988092;28;20500;-49
2023/02/26 06:53:12;;;;;;;1.13;1.00;;;-0.30;99.90;;;;;;4990864;28;20287;-48
2023/02/26 06:55:44;;;;;;;0.77;0.73;;;-0.40;99.90;;;;;;4974257;28;20286;-49
2023/02/26 06:58:13;;;;;;;1.20;0.90;;;-0.30;99.90;;;;;;4975091;28;20320;-48
2023/02/26 07:00:40;;;;;;;1.33;1.00;;;-0.30;99.90;;;;;;4977319;28;20261;-52
2023/02/26 07:03:10;;;;;;;4.13;1.50;;;-0.30;99.90;;;;;;4993680;28;20699;-49
2023/02/26 07:05:37;;;;;;;2.83;1.30;;;-0.30;99.90;;;;;;4991950;28;20205;-48
2023/02/26 07:08:04;;;;;;;2.53;1.10;;;-0.20;99.90;;;;;;4988563;28;20206;-49
2023/02/26 07:10:33;;;;;;;1.27;1.00;;;-0.10;99.90;;;;;;4990608;28;20221;-50
2023/02/26 07:13:01;;;;;;;3.23;0.83;;;-0.10;99.90;;;;;;4993443;28;20202;-49
2023/02/26 07:15:29;;;;;;;2.03;2.00;;;-0.10;99.90;;;;;;4993514;28;20204;-49
2023/02/26 07:17:56;;;;;;;5.53;1.20;;;0.00;99.90;;;;;;4993446;28;20196;-48
2023/02/26 07:20:24;;;;;;;3.83;1.80;;;0.10;99.90;;;;;;4992363;28;20208;-49
2023/02/26 07:22:51;;;;;;;0.90;0.90;;;0.20;99.90;;;;;;4993116;28;20594;-48
2023/02/26 07:25:19;;;;;;;1.50;0.80;;;0.20;99.90;;;;;;4993020;28;20263;-48
2023/02/26 07:27:47;;;;;;;1.87;0.70;;;0.20;99.90;;;;;;4993127;28;20670;-49
2023/02/26 07:30:16;;;;;;;1.00;0.70;;;0.20;99.90;;;;;;4992559;28;20221;-49
2023/02/26 07:32:48;;;;;;;1.88;1.10;;;0.20;99.90;;;;;;4991769;28;20452;-49
2023/02/26 07:35:18;;;;;;;1.30;1.20;;;0.30;99.90;;;;;;4990781;28;20280;-49
2023/02/26 07:37:47;;;;;;;1.53;1.00;;;0.30;99.90;;;;;;4991623;28;20634;-48
2023/02/26 07:40:14;;;;;;;3.97;0.70;;;0.40;99.90;;;;;;4985777;28;20512;-50
2023/02/26 07:42:45;;;;;;;1.30;1.20;;;0.40;99.90;;;;;;4994430;28;20642;-48
2023/02/26 07:45:16;;;;;;;3.17;0.80;;;0.50;99.90;;;;;;4982543;28;20213;-48
2023/02/26 07:47:46;;;;;;;0.97;0.97;;;0.50;99.90;;;;;;4992997;28;20295;-49
2023/02/26 07:50:13;;;;;;;3.63;1.53;;;0.50;99.90;;;;;;4990107;28;20271;-48
2023/02/26 07:52:42;;;;;;;1.70;1.07;;;0.70;99.90;;;;;;4983857;28;20245;-50
2023/02/26 07:55:10;;;;;;;4.67;1.70;;;0.80;99.90;;;;;;4990351;28;20215;-49
2023/02/26 07:57:41;;;;;;;0.97;0.73;;;0.80;99.90;;;;;;4990098;28;20268;-49
2023/02/26 08:00:09;;;;;;;3.23;2.93;;;0.90;99.90;;;;;;4988759;28;20211;-49
2023/02/26 08:02:36;;;;;;;1.67;0.90;;;0.90;99.90;;;;;;4992544;28;20583;-49
2023/02/26 08:05:05;;;;;;;1.00;1.00;;;1.10;99.90;;;;;;4992594;28;20227;-49
2023/02/26 08:07:32;;;;;;;1.87;1.77;;;1.20;99.90;;;;;;4992444;28;20729;-49
2023/02/26 08:09:59;;;;;;;1.87;1.13;;;1.30;99.90;;;;;;4988963;28;20292;-49
2023/02/26 08:12:26;;;;;;;1.83;1.70;;;1.30;99.90;;;;;;4991461;28;20208;-49
2023/02/26 08:14:53;;;;;;;3.50;0.80;;;1.20;99.90;;;;;;4991079;28;20283;-50
2023/02/26 08:17:20;;;;;;;2.13;1.23;;;1.50;99.90;;;;;;4992864;28;20212;-49
2023/02/26 08:19:47;;;;;;;1.07;1.07;;;1.40;99.90;;;;;;4991064;28;20202;-50
2023/02/26 08:22:15;;;;;;;2.10;1.17;;;0.90;99.90;;;;;;4992254;28;20196;-48
2023/02/26 08:24:42;;;;;;;2.30;1.10;;;0.80;99.90;;;;;;4991108;28;20233;-50
2023/02/26 08:27:09;;;;;;;2.50;1.10;;;0.80;99.90;;;;;;4990619;28;20687;-48
2023/02/26 08:29:36;;;;;;;2.50;1.40;;;0.70;99.90;;;;;;4989219;28;20259;-49
2023/02/26 08:32:04;;;;;;;1.83;1.37;;;0.70;99.90;;;;;;4990901;28;20204;-50
2023/02/26 08:34:30;;;;;;;7.07;1.93;;;1.10;99.90;;;;;;4992189;28;20292;-49
2023/02/26 08:36:57;;;;;;;1.00;0.90;;;1.50;99.90;;;;;;4992134;28;20272;-50
2023/02/26 08:39:26;;;;;;;2.10;1.27;;;1.90;99.90;;;;;;4991692;28;20265;-52
2023/02/26 08:41:53;;;;;;;0.90;0.90;;;2.50;99.90;;;;;;4984199;28;20270;-48
2023/02/26 08:44:20;;;;;;;1.33;1.10;;;2.90;99.90;;;;;;4996364;28;20234;-49
2023/02/26 08:46:47;;;;;;;1.33;0.97;;;2.90;99.90;;;;;;4993753;28;20273;-48
2023/02/26 08:49:14;;;;;;;5.13;1.57;;;3.10;99.90;;;;;;5013307;23;20698;-48
2023/02/26 08:51:41;;;;;;;1.57;1.20;;;2.80;99.90;;;;;;4961812;28;20720;-49
2023/02/26 08:54:08;;;;;;;1.83;1.47;;;2.90;99.90;;;;;;4957814;28;20282;-48
2023/02/26 08:56:36;;;;;;;1.40;1.30;;;2.70;99.90;;;;;;4969255;28;20627;-48
2023/02/26 08:59:03;;;;;;;2.00;1.80;;;2.50;99.90;;;;;;4957303;28;20588;-48
2023/02/26 09:01:31;;;;;;;2.10;1.23;;;2.60;99.90;;;;;;4947265;29;20936;-48
2023/02/26 09:03:58;;;;;;;2.23;1.47;;;2.80;99.90;;;;;;4953248;29;20239;-47
2023/02/26 09:06:25;;;;;;;2.63;1.50;;;2.80;99.90;;;;;;4954048;28;20666;-48
2023/02/26 09:08:52;;;;;;;3.30;1.50;;;3.30;99.90;;;;;;4953456;28;20258;-50
2023/02/26 09:11:19;;;;;;;6.20;1.20;;;3.40;99.90;;;;;;4953676;28;20226;-48
2023/02/26 09:13:47;;;;;;;1.10;1.00;;;3.30;99.90;;;;;;4951770;29;20206;-48
2023/02/26 09:16:15;;;;;;;1.93;0.93;;;3.10;99.90;;;;;;4948464;28;20664;-48
2023/02/26 09:18:42;;;;;;;3.23;1.07;;;3.20;99.90;;;;;;4950391;28;20262;-47
2023/02/26 09:21:09;;;;;;;0.80;0.80;;;3.20;99.90;;;;;;4946775;29;20218;-48
2023/02/26 09:23:36;;;;;;;2.33;1.83;;;3.50;99.90;;;;;;4953770;28;20202;-48
2023/02/26 09:26:03;;;;;;;2.03;0.80;;;3.20;99.90;;;;;;4953323;29;20206;-48
2023/02/26 09:28:30;;;;;;;2.20;1.17;;;2.90;99.90;;;;;;4953294;29;20212;-49
2023/02/26 09:30:58;;;;;;;1.23;1.13;;;2.30;99.90;;;;;;4952825;29;20292;-50
2023/02/26 09:33:26;;;;;;;1.60;0.97;;;2.30;99.90;;;;;;4953290;28;20278;-48
2023/02/26 09:35:53;;;;;;;0.80;0.80;;;2.00;99.90;;;;;;4953604;29;20639;-49
2023/02/26 09:38:20;;;;;;;1.60;0.90;;;1.90;99.90;;;;;;4951466;28;20206;-48
2023/02/26 09:40:52;;;;;;;3.47;1.57;;;1.60;99.90;;;;;;4946189;28;20224;-46
2023/02/26 09:43:35;;;;;;;1.23;0.90;;;1.40;99.90;;;;;;4946779;29;20361;-47
2023/02/26 09:46:09;;;;;;;1.47;1.20;;;1.00;99.90;;;;;;4950849;28;20207;-48
2023/02/26 09:48:38;;;;;;;1.73;1.13;;;1.10;99.90;;;;;;4951430;28;20664;-47
2023/02/26 09:51:07;;;;;;;1.40;1.00;;;1.10;99.90;;;;;;4950908;28;20225;-47
2023/02/26 09:53:40;;;;;;;1.50;1.40;;;1.00;99.90;;;;;;4951177;29;20206;-47
2023/02/26 09:56:13;;;;;;;1.27;1.10;;;0.90;99.90;;;;;;4951877;29;20206;-48
2023/02/26 09:58:42;;;;;;;3.27;1.63;;;1.00;99.90;;;;;;4944076;29;20550;-50
2023/02/26 10:01:16;;;;;;;1.10;1.00;;;1.00;99.90;;;;;;4951723;29;20218;-49
2023/02/26 10:03:55;;;;;;;0.80;0.80;;;1.40;99.90;;;;;;4950684;29;20201;-49
2023/02/26 10:06:26;;;;;;;1.63;1.00;;;2.00;99.90;;;;;;4951857;28;20637;-48
2023/02/26 10:09:24;;;;;;;1.73;1.10;;;3.00;99.90;;;;;;4949708;29;20216;-47
2023/02/26 10:11:57;;;;;;;1.13;1.13;;;3.90;99.90;;;;;;4942039;29;20213;-48
2023/02/26 10:14:28;;;;;;;3.60;0.90;;;4.10;99.90;;;;;;4943834;28;20739;-48
2023/02/26 10:17:00;;;;;;;0.93;0.70;;;4.90;99.90;;;;;;4951962;29;20267;-48
2023/02/26 10:19:30;;;;;;;1.33;0.90;;;5.20;99.90;;;;;;4944325;28;20250;-49
2023/02/26 10:22:03;;;;;;;0.70;0.70;;;5.60;99.90;;;;;;4942558;29;20231;-48
2023/02/26 10:24:37;;;;;;;1.70;0.53;;;5.70;99.90;;;;;;4949225;29;20285;-48
2023/02/26 10:27:07;;;;;;;2.03;0.97;;;5.60;99.90;;;;;;4943709;29;20208;-48
2023/02/26 10:29:42;;;;;;;6.53;0.70;;;5.20;99.90;;;;;;4952852;28;20222;-47
2023/02/26 10:32:22;;;;;;;1.73;0.57;;;4.50;99.90;;;;;;4956183;28;20301;-48
2023/02/26 10:34:56;;;;;;;0.83;0.83;;;3.60;99.90;;;;;;4955332;29;20206;-49
2023/02/26 10:37:38;;;;;;;1.10;0.87;;;2.80;99.90;;;;;;4951933;28;20227;-48
2023/02/26 10:40:14;;;;;;;2.07;1.43;;;2.30;99.90;;;;;;4956348;28;20567;-48
2023/02/26 10:42:46;;;;;;;1.30;0.93;;;2.40;99.90;;;;;;4956109;28;20236;-48
2023/02/26 10:45:28;;;;;;;0.67;0.67;;;2.20;99.90;;;;;;4955572;28;20202;-50
2023/02/26 10:48:09;;;;;;;1.27;0.70;;;1.80;99.90;;;;;;4946480;28;20209;-50
2023/02/26 10:50:37;;;;;;;0.90;0.90;;;1.90;99.90;;;;;;4952770;28;20256;-49
2023/02/26 10:53:04;;;;;;;0.87;0.53;;;1.90;99.90;;;;;;4952959;29;20252;-48
2023/02/26 10:55:39;;;;;;;2.43;0.70;;;1.80;99.90;;;;;;4953434;28;20557;-48
2023/02/26 10:58:12;;;;;;;1.87;0.77;;;1.70;99.90;;;;;;4947650;29;20205;-48
2023/02/26 11:00:40;;;;;;;2.13;1.23;;;1.80;99.90;;;;;;4954712;29;20265;-48
2023/02/26 11:03:14;;;;;;;0.67;0.67;;;2.20;99.90;;;;;;4954891;28;20251;-48
2023/02/26 11:05:41;;;;;;;0.77;0.73;;;2.70;99.90;;;;;;4951389;28;20730;-47
2023/02/26 11:08:15;;;;;;;0.77;0.53;;;2.60;99.90;;;;;;4956128;28;20205;-48
2023/02/26 11:10:47;;;;;;;1.87;1.77;;;3.00;99.90;;;;;;4954944;29;20299;-48
2023/02/26 11:13:14;;;;;;;2.67;1.67;;;3.40;99.90;;;;;;4942094;29;20278;-49
2023/02/26 11:15:42;;;;;;;0.80;0.60;;;3.40;99.90;;;;;;4944035;29;20210;-50
2023/02/26 11:18:15;;;;;;;0.60;0.60;;;3.00;99.90;;;;;;4950919;28;20208;-48
2023/02/26 11:20:45;;;;;;;0.80;0.70;;;2.60;99.90;;;;;;4952984;29;20922;-49
2023/02/26 11:23:16;;;;;;;1.27;1.17;;;2.30;99.90;;;;;;4953985;28;20204;-48
2023/02/26 11:25:44;;;;;;;0.87;0.60;;;2.00;99.90;;;;;;4952107;29;20219;-48
2023/02/26 11:28:22;;;;;;;3.87;2.27;;;1.80;99.90;;;;;;4953783;29;20210;-48
2023/02/26 11:30:52;;;;;;;2.10;0.83;;;2.00;99.90;;;;;;4954386;28;20230;-49
2023/02/26 11:33:23;;;;;;;1.27;0.93;;;2.00;99.90;;;;;;4954612;29;20217;-49
2023/02/26 11:35:51;;;;;;;2.30;0.67;;;2.10;99.90;;;;;;4951847;28;20686;-49
2023/02/26 11:38:22;;;;;;;0.77;0.73;;;2.10;99.90;;;;;;4950867;28;20207;-50
2023/02/26 11:40:54;;;;;;;0.67;0.53;;;2.10;99.90;;;;;;4954463;28;20276;-49
2023/02/26 11:43:23;;;;;;;0.83;0.70;;;2.00;99.90;;;;;;4951018;28;20228;-48
2023/02/26 11:45:55;;;;;;;1.20;0.80;;;1.90;99.90;;;;;;4951478;29;20256;-49
2023/02/26 11:48:26;;;;;;;0.70;0.70;;;1.70;99.90;;;;;;4952708;28;20201;-50
2023/02/26 11:50:57;;;;;;;2.80;2.13;;;1.70;99.90;;;;;;4952644;29;20229;-50
2023/02/26 11:53:29;;;;;;;6.83;0.93;;;1.60;99.90;;;;;;4954036;28;20197;-48
2023/02/26 11:56:01;;;;;;;0.70;0.53;;;1.60;99.90;;;;;;4951380;29;20250;-48
2023/02/26 11:58:31;;;;;;;0.70;0.70;;;1.70;99.90;;;;;;4951086;29;20240;-49
2023/02/26 12:01:01;;;;;;;0.57;0.40;;;1.60;99.90;;;;;;4951014;28;20239;-47
2023/02/26 12:03:33;;;;;;;3.40;1.03;;;1.50;99.90;;;;;;4943717;28;20211;-47
2023/02/26 12:06:03;;;;;;;0.50;0.50;;;1.30;99.90;;;;;;4941763;28;20220;-47
2023/02/26 12:08:41;;;;;;;0.80;0.70;;;1.30;99.90;;;;;;4946031;28;20210;-47
2023/02/26 12:11:27;;;;;;;3.23;1.50;;;1.30;99.90;;;;;;4945522;28;20281;-49
2023/02/26 12:14:07;;;;;;;2.67;1.37;;;1.50;99.90;;;;;;4944089;28;20209;-47
2023/02/26 12:16:44;;;;;;;1.00;0.90;;;1.60;99.90;;;;;;4945319;29;20207;-48
2023/02/26 12:19:21;;;;;;;0.90;0.80;;;1.60;99.90;;;;;;4947307;29;20206;-49
2023/02/26 12:22:15;;;;;;;1.37;1.23;;;1.90;99.90;;;;;;4951556;29;20270;-49
2023/02/26 12:25:24;;;;;;;2.13;1.67;;;2.00;99.90;;;;;;4951202;29;20262;-50
2023/02/26 12:28:28;;;;;;;1.53;0.53;;;2.00;99.90;;;;;;4914289;29;20203;-48
2023/02/26 12:31:16;;;;;;;1.17;1.10;;;2.20;99.90;;;;;;4925919;29;20234;-47
2023/02/26 12:33:53;;;;;;;2.13;2.00;;;2.20;99.90;;;;;;4948740;28;20266;-48
2023/02/26 12:36:42;;;;;;;1.00;1.00;;;2.50;99.90;;;;;;4948501;29;20198;-49
2023/02/26 12:39:30;;;;;;;1.10;0.77;;;2.40;99.90;;;;;;4947255;29;20206;-47
2023/02/26 12:42:08;;;;;;;1.70;0.60;;;2.40;99.90;;;;;;4952066;28;20262;-49
2023/02/26 12:44:52;;;;;;;0.83;0.83;;;2.40;99.90;;;;;;4951566;28;20245;-48
2023/02/26 12:47:32;;;;;;;1.00;1.00;;;2.40;99.90;;;;;;4952962;29;20282;-49
2023/02/26 12:50:16;;;;;;;1.37;1.37;;;2.50;99.90;;;;;;4947786;29;20231;-48
2023/02/26 12:53:03;;;;;;;2.33;0.50;;;2.50;99.90;;;;;;4952033;28;20350;-48
2023/02/26 12:55:37;;;;;;;1.27;1.10;;;2.40;99.90;;;;;;4953757;29;20246;-48
2023/02/26 12:58:36;;;;;;;0.70;0.70;;;2.50;99.90;;;;;;4952115;29;20210;-48
2023/02/26 13:01:32;;;;;;;0.60;0.60;;;2.50;99.90;;;;;;4952264;28;20306;-49
2023/02/26 13:04:33;;;;;;;1.23;1.10;;;2.70;99.90;;;;;;4949816;28;20260;-48
2023/02/26 13:07:33;;;;;;;0.70;0.50;;;2.70;99.90;;;;;;4946411;29;20626;-49
2023/02/26 13:10:08;;;;;;;1.23;1.23;;;2.40;99.90;;;;;;4930277;28;20228;-47
2023/02/26 13:12:46;;;;;;;1.33;1.23;;;2.40;99.90;;;;;;4947579;29;20253;-48
2023/02/26 13:16:07;;;;;;;2.53;1.40;;;2.60;99.90;;;;;;4948234;29;20199;-48
2023/02/26 13:18:43;;;;;;;0.53;0.53;;;2.80;99.90;;;;;;4900274;29;20272;-48